WetterOnline ( https://www.wetteronline.de )

Wetter aktuell San Marino

Aktuelles Wetter: Frontone (574m)

6-stündlich | Neueste Meldungen
Ortszeit Temperatur Wetter
Fr, 07.05. 14:00 18.2° C bedeckt
Fr, 07.05. 8:00 15.2° C leicht bewölkt
Fr, 07.05. 2:00 13.2° C leicht bewölkt
Do, 06.05. 20:00 17.6° C leicht bewölkt
Do, 06.05. 14:00 18.6° C leicht bewölkt
Do, 06.05. 8:00 13.0° C leicht bewölkt
Do, 06.05. 2:00 12.2° C leicht bewölkt
Mi, 05.05. 20:00 15.0° C leicht bewölkt
Ortszeit Temperatur Wetter
Fr, 07.05. 15:00 17.8° C bedeckt
Fr, 07.05. 14:00 18.2° C bedeckt
Fr, 07.05. 13:55 18° C bewölkt
Fr, 07.05. 13:00 20.2° C wolkig
Fr, 07.05. 12:55 20° C leicht bewölkt
Fr, 07.05. 12:00 18.2° C wolkig
Fr, 07.05. 11:55 18° C leicht bewölkt
Fr, 07.05. 11:00 17.0° C wolkig
Ortszeit Relative Feuchte Sichtweite
Fr, 07.05. 14:00 57% 35 km
Fr, 07.05. 8:00 62% 40 km
Fr, 07.05. 2:00 58% 20 km
Do, 06.05. 20:00 41% 50 km
Do, 06.05. 14:00 45% 40 km
Do, 06.05. 8:00 51% 20 km
Do, 06.05. 2:00 74% 20 km
Mi, 05.05. 20:00 50% 20 km
Ortszeit Relative Feuchte Sichtweite
Fr, 07.05. 15:00 61% 35 km
Fr, 07.05. 14:00 57% 35 km
Fr, 07.05. 13:55 60% >10 km
Fr, 07.05. 13:00 52% 40 km
Fr, 07.05. 12:55 53% >10 km
Fr, 07.05. 12:00 60% 40 km
Fr, 07.05. 11:55 60% >10 km
Fr, 07.05. 11:00 62% 40 km
Ortszeit Niederschlagsmenge Niederschlagsart
Fr, 07.05. 14:00 0.0 l/m2 in 6 Std. -
Fr, 07.05. 8:00 0.0 l/m2 in 12 Std. -
Fr, 07.05. 2:00 0.0 l/m2 in 6 Std. -
Do, 06.05. 20:00 0.0 l/m2 in 12 Std. -
Do, 06.05. 14:00 0.0 l/m2 in 6 Std. -
Do, 06.05. 8:00 0.0 l/m2 in 12 Std. -
Do, 06.05. 2:00 0.0 l/m2 in 6 Std. -
Mi, 05.05. 20:00 0.0 l/m2 in 12 Std. -
Ortszeit Niederschlagsmenge Niederschlagsart
Fr, 07.05. 15:00 keine Meldung -
Fr, 07.05. 14:00 keine Meldung -
Fr, 07.05. 13:55 keine Meldung -
Fr, 07.05. 13:00 keine Meldung -
Fr, 07.05. 12:55 keine Meldung -
Fr, 07.05. 12:00 keine Meldung -
Fr, 07.05. 11:55 keine Meldung -
Fr, 07.05. 11:00 keine Meldung -
Ortszeit Stärke Spitze Richtung
km/h Bft. km/h Grad Sektor
Fr, 07.05. 14:00 52 7 - 170° S
Fr, 07.05. 8:00 44 6 - 190° S
Fr, 07.05. 2:00 41 6 - 210° SW
Do, 06.05. 20:00 33 5 - 210° SW
Do, 06.05. 14:00 22 4 - 210° SW
Do, 06.05. 8:00 7 2 - 220° SW
Do, 06.05. 2:00 19 3 - 210° SW
Mi, 05.05. 20:00 37 5 - 250° W
Ortszeit Stärke Spitze Richtung
km/h Bft. km/h Grad Sektor
Fr, 07.05. 15:00 28 4 - 210° SW
Fr, 07.05. 14:00 52 7 - 170° S
Fr, 07.05. 13:55 52 7 - 170° S
Fr, 07.05. 13:00 37 5 - 200° S
Fr, 07.05. 12:55 37 5 - 200° S
Fr, 07.05. 12:00 46 6 - 190° S
Fr, 07.05. 11:55 46 6 - 190° S
Fr, 07.05. 11:00 52 7 - 220° SW
Ortszeit Untergrenze Bedeckung Gattung
total tief tief mittel hoch
Fr, 07.05. 14:00 1050 m 8/8 8/8 Cu - -
Fr, 07.05. 8:00 720 m 4/8 2/8 Cu Ac Ci
Fr, 07.05. 2:00 810 m 4/8 2/8 Cu Ac Ci
Do, 06.05. 20:00 2400 m 3/8 2/8 - Ac Ci
Do, 06.05. 14:00 1260 m 5/8 2/8 Sc Ac Ci
Do, 06.05. 8:00 1050 m 2/8 2/8 Cu - -
Do, 06.05. 2:00 1050 m 3/8 3/8 Cu - -
Mi, 05.05. 20:00 1050 m 4/8 2/8 Cu Ac -
Ortszeit Bedeckungsgrad in Achtel und Wolkenuntergrenze
Fr, 07.05. 15:00 3(870m) 5(1200m)
Fr, 07.05. 14:00 3(1050m) 5(1200m)
Fr, 07.05. 13:55 3-4(1050m) 5-7(1200m)
Fr, 07.05. 13:00 2(810m) 3(1050m)
Fr, 07.05. 12:55 1-2(810m) 3-4(1050m)
Fr, 07.05. 12:00 2(810m) 3(1200m)
Fr, 07.05. 11:55 1-2(810m) 3-4(1200m)
Fr, 07.05. 11:00 2(810m) 3(2700m)
Ortszeit Stationsdruck (hPa) Tendenz (hPa in 3 Std.)
Fr, 07.05. 14:00 944 + 0,5
Fr, 07.05. 8:00 943 - 0,1
Fr, 07.05. 2:00 943 - 1,0
Do, 06.05. 20:00 944 - 1,3
Do, 06.05. 14:00 946 + 0,2
Do, 06.05. 8:00 945 + 0,2
Do, 06.05. 2:00 945 + 1,2
Mi, 05.05. 20:00 942 + 0,1
Ortszeit Stationsdruck (hPa) Tendenz (hPa in 3 Std.)
Fr, 07.05. 15:00 944 - 0,1
Fr, 07.05. 14:00 944 + 0,5
Fr, 07.05. 13:55 - keine Meldung
Fr, 07.05. 13:00 943 + 0,9
Fr, 07.05. 12:55 - keine Meldung
Fr, 07.05. 12:00 944 + 0,9
Fr, 07.05. 11:55 - keine Meldung
Fr, 07.05. 11:00 943 + 0,5
Ortszeit Schneehöhe (cm)
Fr, 07.05. 14:00 -
Fr, 07.05. 8:00 0
Fr, 07.05. 2:00 -
Do, 06.05. 20:00 -
Do, 06.05. 14:00 -
Do, 06.05. 8:00 0
Do, 06.05. 2:00 -
Mi, 05.05. 20:00 -
Ortszeit Schneehöhe (cm)
Fr, 07.05. 15:00 -
Fr, 07.05. 14:00 -
Fr, 07.05. 13:55 -
Fr, 07.05. 13:00 -
Fr, 07.05. 12:55 -
Fr, 07.05. 12:00 -
Fr, 07.05. 11:55 -
Fr, 07.05. 11:00 -
Link zu dieser Seite / Seite empfehlen

Das Wetter in ...